Time;durP1;ratioP1;P1;durP2;ratioP2;P2;SDS_P1;SDS_P2;PMS_P1;PMS_P2;Temp;Humidity;BMP_temperature;BMP_pressure;BME280_temperature;BME280_humidity;BME280_pressure;Samples;Min_cycle;Max_cycle;Signal;HPM_P1;HPM_P2
2021/07/25 00:01:14;;;;;;;5.22;4.63;;;;;;;20.19;100.00;98041.19;5016628;28;103357;-65
2021/07/25 00:03:42;;;;;;;4.10;3.80;;;;;;;20.23;100.00;98045.19;5020598;28;103216;-64
2021/07/25 00:06:28;;;;;;;5.53;4.25;;;;;;;20.26;100.00;98044.00;5015394;28;102645;-64
2021/07/25 00:08:56;;;;;;;6.00;5.50;;;;;;;20.24;100.00;98046.84;5018680;28;103192;-64
2021/07/25 00:11:24;;;;;;;6.45;5.82;;;;;;;20.27;100.00;98052.88;5015121;27;106580;-65
2021/07/25 00:13:57;;;;;;;7.93;6.80;;;;;;;20.23;100.00;98050.53;5018300;28;104351;-64
2021/07/25 00:16:25;;;;;;;6.55;5.95;;;;;;;20.18;100.00;98050.25;5017733;28;102598;-65
2021/07/25 00:18:54;;;;;;;7.68;6.82;;;;;;;20.26;100.00;98045.84;5016753;28;102875;-64
2021/07/25 00:21:22;;;;;;;7.43;6.15;;;;;;;20.30;100.00;98037.22;5015442;28;103312;-65
2021/07/25 00:23:51;;;;;;;8.52;7.53;;;;;;;20.34;100.00;98033.16;5017387;28;103208;-64
2021/07/25 00:26:25;;;;;;;5.60;5.03;;;;;;;20.33;100.00;98030.66;5013179;28;102653;-64
2021/07/25 00:28:54;;;;;;;5.72;4.93;;;;;;;20.34;100.00;98016.22;5019233;28;102819;-64
2021/07/25 00:31:24;;;;;;;5.80;5.38;;;;;;;20.34;100.00;98008.19;5012526;27;108426;-64
2021/07/25 00:33:52;;;;;;;6.90;6.40;;;;;;;20.36;100.00;98014.19;5014509;28;103827;-63
2021/07/25 00:36:20;;;;;;;6.13;5.53;;;;;;;20.31;100.00;98019.28;5018410;28;102663;-65
2021/07/25 00:38:48;;;;;;;7.78;7.07;;;;;;;20.34;100.00;98032.31;5016829;28;103244;-64
2021/07/25 00:41:19;;;;;;;6.45;5.85;;;;;;;20.40;100.00;98031.56;5019091;28;103452;-64
2021/07/25 00:43:48;;;;;;;8.45;7.63;;;;;;;20.41;100.00;98036.75;5014200;28;104138;-65
2021/07/25 00:46:19;;;;;;;7.10;6.43;;;;;;;20.42;100.00;98034.91;5015263;28;102635;-65
2021/07/25 00:48:48;;;;;;;5.38;4.88;;;;;;;20.39;100.00;98046.00;5016482;28;102819;-65
2021/07/25 00:51:16;;;;;;;6.15;5.53;;;;;;;20.42;100.00;98046.47;5013574;28;104409;-65
2021/07/25 00:53:44;;;;;;;5.28;4.78;;;;;;;20.43;100.00;98044.63;5016168;28;105249;-65
2021/07/25 00:56:13;;;;;;;7.72;7.03;;;;;;;20.41;100.00;98039.44;5015981;28;102777;-65
2021/07/25 00:58:42;;;;;;;6.95;6.25;;;;;;;20.39;100.00;98030.75;5015187;28;103509;-64
2021/07/25 01:01:13;;;;;;;6.90;6.22;;;;;;;20.45;100.00;98031.84;5010985;28;102902;-65
2021/07/25 01:04:02;;;;;;;9.60;8.70;;;;;;;20.48;100.00;98031.47;5014780;28;103090;-65
2021/07/25 01:06:45;;;;;;;8.38;6.60;;;;;;;20.47;100.00;98021.75;5012347;28;103913;-64
2021/07/25 01:09:18;;;;;;;10.82;9.32;;;;;;;20.39;100.00;98016.50;5017965;28;102686;-65
2021/07/25 01:11:48;;;;;;;9.30;8.40;;;;;;;20.40;100.00;98027.06;5012540;28;103466;-64
2021/07/25 01:14:22;;;;;;;9.40;8.02;;;;;;;20.44;100.00;98024.78;5017686;28;103209;-65
2021/07/25 01:16:50;;;;;;;6.50;6.00;;;;;;;20.45;100.00;98007.69;5015856;28;102670;-64
2021/07/25 01:19:20;;;;;;;13.15;11.10;;;;;;;20.19;100.00;97992.09;5017415;28;102636;-65
2021/07/25 01:21:49;;;;;;;11.40;10.20;;;;;;;19.95;100.00;97969.13;5012265;28;103246;-64
2021/07/25 01:24:18;;;;;;;10.20;9.15;;;;;;;19.83;100.00;97964.41;5016335;28;103383;-65
2021/07/25 01:26:46;;;;;;;9.15;8.23;;;;;;;20.04;100.00;97962.63;5015133;28;102639;-64
2021/07/25 01:29:30;;;;;;;13.15;8.90;;;;;;;20.13;100.00;97950.78;5016409;28;102662;-65
2021/07/25 01:31:59;;;;;;;10.25;8.35;;;;;;;20.16;100.00;97953.06;5015429;28;103494;-64
2021/07/25 01:34:28;;;;;;;10.35;8.57;;;;;;;20.07;100.00;97962.25;5014898;28;103176;-64
2021/07/25 01:36:58;;;;;;;10.10;8.68;;;;;;;20.18;100.00;97995.81;5014903;28;103624;-65
2021/07/25 01:39:27;;;;;;;10.60;8.77;;;;;;;20.10;100.00;98010.13;5022287;28;102607;-64
2021/07/25 01:41:55;;;;;;;9.32;7.38;;;;;;;20.07;100.00;97989.06;5017566;28;103577;-64
2021/07/25 01:44:23;;;;;;;9.85;8.85;;;;;;;20.11;100.00;97990.34;5017915;28;103218;-64
2021/07/25 01:46:51;;;;;;;8.63;7.93;;;;;;;20.11;100.00;97985.00;5017746;28;102808;-64
2021/07/25 01:49:19;;;;;;;12.18;10.45;;;;;;;20.15;100.00;97996.19;5020107;28;102665;-64
2021/07/25 01:51:47;;;;;;;8.27;7.47;;;;;;;20.08;100.00;98006.81;5014710;28;103570;-64
2021/07/25 01:54:17;;;;;;;8.32;7.53;;;;;;;20.20;100.00;98018.72;5019114;28;103326;-65
2021/07/25 01:56:44;;;;;;;7.13;6.32;;;;;;;20.30;100.00;98009.56;5020050;27;102585;-64
2021/07/25 01:59:12;;;;;;;12.00;10.77;;;;;;;19.79;100.00;97990.75;5017456;28;102999;-64
2021/07/25 02:01:40;;;;;;;8.55;7.75;;;;;;;19.89;100.00;97996.69;5012179;28;106263;-64
2021/07/25 02:04:09;;;;;;;8.00;7.30;;;;;;;19.92;100.00;98009.72;5020618;28;103207;-64
2021/07/25 02:06:37;;;;;;;6.82;6.20;;;;;;;19.93;100.00;98008.66;5014323;28;102872;-64
2021/07/25 02:09:05;;;;;;;9.07;8.13;;;;;;;20.07;100.00;98031.16;5019911;28;102815;-64
2021/07/25 02:11:34;;;;;;;6.38;5.78;;;;;;;20.15;100.00;98025.69;5018211;28;103295;-64
2021/07/25 02:14:03;;;;;;;6.60;5.80;;;;;;;20.17;100.00;98032.50;5017361;27;103077;-64
2021/07/25 02:16:31;;;;;;;6.50;5.90;;;;;;;20.21;100.00;98033.78;5018621;28;102650;-65
2021/07/25 02:18:59;;;;;;;5.25;4.75;;;;;;;20.21;100.00;98039.16;5019003;28;103052;-64
2021/07/25 02:21:27;;;;;;;6.90;6.22;;;;;;;20.18;100.00;98020.75;5019373;28;103348;-64
2021/07/25 02:23:55;;;;;;;7.22;5.97;;;;;;;20.18;100.00;98028.00;5017267;28;103165;-64
2021/07/25 02:26:23;;;;;;;9.55;8.55;;;;;;;20.02;100.00;98015.59;5019116;28;102698;-64
2021/07/25 02:28:52;;;;;;;8.95;8.15;;;;;;;19.70;100.00;98017.84;5016408;28;102786;-64
2021/07/25 02:31:21;;;;;;;7.28;6.05;;;;;;;19.86;100.00;98025.69;5017868;27;103469;-64
2021/07/25 02:33:49;;;;;;;17.25;10.20;;;;;;;19.66;100.00;98020.03;5020104;28;103277;-65
2021/07/25 02:36:17;;;;;;;6.95;6.25;;;;;;;19.85;100.00;98022.16;5013383;28;102666;-64
2021/07/25 02:38:45;;;;;;;10.32;9.13;;;;;;;19.78;100.00;98018.59;5017797;28;103012;-64
2021/07/25 02:41:13;;;;;;;10.85;9.68;;;;;;;19.48;100.00;98020.38;5016318;28;106197;-64
2021/07/25 02:43:41;;;;;;;11.27;10.02;;;;;;;19.52;100.00;98020.88;5015673;28;102834;-64
2021/07/25 02:46:10;;;;;;;9.32;8.40;;;;;;;19.61;100.00;98035.84;5017693;27;102613;-64
2021/07/25 02:48:38;;;;;;;11.02;9.90;;;;;;;19.57;100.00;98030.03;5020450;28;102738;-64
2021/07/25 02:51:06;;;;;;;8.93;7.97;;;;;;;19.67;100.00;98027.09;5015369;28;103657;-64
2021/07/25 02:53:35;;;;;;;7.38;6.70;;;;;;;19.76;100.00;98039.34;5020896;28;103084;-64
2021/07/25 02:56:03;;;;;;;7.00;6.50;;;;;;;19.89;100.00;98049.44;5015177;28;102695;-64
2021/07/25 02:58:31;;;;;;;10.85;9.75;;;;;;;19.85;100.00;98051.66;5013524;27;102725;-64
2021/07/25 03:00:59;;;;;;;11.70;10.55;;;;;;;19.68;100.00;98042.97;5018591;28;103247;-64
2021/07/25 03:03:28;;;;;;;10.63;9.57;;;;;;;19.65;100.00;98042.50;5019881;28;103175;-64
2021/07/25 03:05:56;;;;;;;7.70;7.00;;;;;;;19.79;100.00;98038.19;4997195;28;102782;-64
2021/07/25 03:08:24;;;;;;;7.60;6.35;;;;;;;19.90;100.00;98038.53;5017284;28;103031;-65
2021/07/25 03:10:52;;;;;;;6.47;5.88;;;;;;;20.00;100.00;98030.22;5015533;28;103578;-64
2021/07/25 03:13:20;;;;;;;6.68;6.00;;;;;;;20.04;100.00;98029.63;5020337;28;103371;-65
2021/07/25 03:15:48;;;;;;;6.60;6.00;;;;;;;20.10;100.00;98036.94;5012896;28;102679;-65
2021/07/25 03:18:16;;;;;;;5.78;5.28;;;;;;;20.11;100.00;98038.63;5017963;28;103073;-64
2021/07/25 03:20:45;;;;;;;5.45;5.05;;;;;;;20.11;100.00;98043.97;5019715;28;103426;-64
2021/07/25 03:23:13;;;;;;;6.38;5.78;;;;;;;20.15;100.00;98049.81;5015611;28;103053;-64
2021/07/25 03:25:41;;;;;;;9.18;7.75;;;;;;;20.16;100.00;98038.88;5018310;28;102691;-65
2021/07/25 03:28:09;;;;;;;5.85;5.28;;;;;;;20.14;100.00;98038.25;5018634;28;102783;-65
2021/07/25 03:30:37;;;;;;;5.20;4.72;;;;;;;20.18;100.00;98031.47;5015060;28;103240;-64
2021/07/25 03:33:05;;;;;;;5.28;4.85;;;;;;;20.19;100.00;98024.28;5017996;28;103306;-64
2021/07/25 03:35:35;;;;;;;6.43;5.82;;;;;;;20.17;100.00;98024.47;5015433;28;102727;-64
2021/07/25 03:38:04;;;;;;;6.00;5.40;;;;;;;20.15;100.00;98033.72;5018423;28;102663;-64
2021/07/25 03:40:33;;;;;;;5.35;4.85;;;;;;;20.12;100.00;98034.94;5019996;28;103380;-64
2021/07/25 03:43:01;;;;;;;5.70;5.05;;;;;;;20.11;100.00;98033.25;5015992;28;103220;-64
2021/07/25 03:45:29;;;;;;;5.05;4.55;;;;;;;20.07;100.00;98041.88;5015985;28;102940;-64
2021/07/25 03:47:57;;;;;;;7.63;7.03;;;;;;;20.00;100.00;98036.41;5015802;28;102707;-64
2021/07/25 03:50:25;;;;;;;6.03;5.45;;;;;;;19.93;100.00;98042.72;5017678;28;103475;-65
2021/07/25 03:52:53;;;;;;;5.45;4.93;;;;;;;19.94;100.00;98063.13;5015614;28;103320;-62
2021/07/25 03:55:23;;;;;;;5.95;5.35;;;;;;;19.93;100.00;98048.88;5015620;28;102618;-65
2021/07/25 03:57:52;;;;;;;5.82;5.30;;;;;;;19.89;100.00;98052.13;5016771;27;102789;-64
2021/07/25 04:00:20;;;;;;;9.38;8.07;;;;;;;19.79;100.00;98055.06;5013568;28;103949;-64
2021/07/25 04:02:48;;;;;;;8.88;7.97;;;;;;;19.70;100.00;98056.19;5016053;28;103200;-65
2021/07/25 04:05:17;;;;;;;9.43;7.32;;;;;;;19.75;100.00;98061.81;5013691;28;102721;-64
2021/07/25 04:07:44;;;;;;;13.55;8.60;;;;;;;19.73;100.00;98063.03;5017426;28;103181;-64
2021/07/25 04:10:13;;;;;;;8.82;8.10;;;;;;;19.59;100.00;98059.31;5011717;28;104476;-64
2021/07/25 04:12:42;;;;;;;11.32;8.32;;;;;;;19.62;100.00;98054.41;5010230;28;103596;-64
2021/07/25 04:15:11;;;;;;;9.85;8.85;;;;;;;19.37;100.00;98054.81;5012406;28;103056;-64
2021/07/25 04:17:39;;;;;;;8.90;8.20;;;;;;;19.20;100.00;98054.09;5018841;28;102800;-64
2021/07/25 04:20:08;;;;;;;12.65;11.18;;;;;;;19.14;100.00;98060.19;5017113;28;104583;-64
2021/07/25 04:22:38;;;;;;;8.02;7.13;;;;;;;19.32;100.00;98065.22;5018224;28;104113;-64
2021/07/25 04:25:08;;;;;;;6.90;6.30;;;;;;;19.52;100.00;98069.09;5011668;28;103062;-64
2021/07/25 04:27:37;;;;;;;5.85;5.30;;;;;;;19.64;100.00;98054.25;5017174;28;102811;-65
2021/07/25 04:30:07;;;;;;;7.60;6.32;;;;;;;19.75;100.00;98059.16;4999736;28;104516;-65
2021/07/25 04:32:36;;;;;;;5.68;5.10;;;;;;;19.80;100.00;98062.09;5013744;28;103238;-65
2021/07/25 04:35:07;;;;;;;6.38;5.70;;;;;;;19.88;100.00;98062.00;5018122;28;102982;-64
2021/07/25 04:37:38;;;;;;;7.85;7.07;;;;;;;19.91;100.00;98058.13;5017226;28;103285;-64
2021/07/25 04:40:08;;;;;;;10.95;8.43;;;;;;;19.91;100.00;98064.31;5013783;28;103330;-64
2021/07/25 04:42:37;;;;;;;9.45;8.20;;;;;;;19.82;100.00;98068.09;5017130;28;104379;-64
2021/07/25 04:45:08;;;;;;;7.38;6.68;;;;;;;19.85;100.00;98069.56;5013150;28;102837;-64
2021/07/25 04:47:42;;;;;;;9.07;8.23;;;;;;;19.83;100.00;98067.09;5014516;28;102727;-64
2021/07/25 04:50:16;;;;;;;8.48;7.75;;;;;;;19.82;100.00;98081.50;5017294;28;103400;-64
2021/07/25 04:52:51;;;;;;;7.53;6.72;;;;;;;19.90;100.00;98089.44;5014972;28;103973;-64
2021/07/25 04:55:23;;;;;;;5.97;5.47;;;;;;;19.99;100.00;98085.66;5017295;28;102691;-65
2021/07/25 04:58:03;;;;;;;6.00;5.50;;;;;;;20.09;100.00;98080.03;5019410;27;102832;-64
2021/07/25 05:00:33;;;;;;;7.50;6.90;;;;;;;20.08;100.00;98081.88;5017303;28;103579;-64
2021/07/25 05:03:03;;;;;;;6.80;6.00;;;;;;;20.06;100.00;98083.94;5015815;28;103278;-64
2021/07/25 05:05:32;;;;;;;8.65;7.88;;;;;;;20.11;100.00;98078.84;5008774;28;102711;-65
2021/07/25 05:08:02;;;;;;;9.95;8.95;;;;;;;20.01;100.00;98080.97;5011869;27;102827;-65
2021/07/25 05:10:31;;;;;;;7.10;6.50;;;;;;;20.08;100.00;98079.22;5011313;28;103406;-64
2021/07/25 05:13:05;;;;;;;7.68;7.05;;;;;;;20.22;100.00;98088.25;5014256;28;103127;-64
2021/07/25 05:15:40;;;;;;;6.18;5.57;;;;;;;20.32;100.00;98088.00;5015676;28;102683;-65
2021/07/25 05:18:09;;;;;;;6.80;6.20;;;;;;;20.34;100.00;98092.16;5016996;27;103014;-65
2021/07/25 05:20:44;;;;;;;7.45;6.85;;;;;;;20.31;100.00;98091.72;5011754;28;103580;-65
2021/07/25 05:23:18;;;;;;;7.22;6.57;;;;;;;20.34;100.00;98089.50;5017564;28;103150;-65
2021/07/25 05:25:50;;;;;;;7.30;6.60;;;;;;;20.40;100.00;98087.91;5015018;28;103010;-65
2021/07/25 05:28:20;;;;;;;6.63;5.93;;;;;;;20.49;100.00;98097.53;5013987;28;102749;-65
2021/07/25 05:30:52;;;;;;;6.65;6.05;;;;;;;20.52;100.00;98095.28;5013752;28;104757;-66
2021/07/25 05:33:21;;;;;;;9.15;8.25;;;;;;;20.50;100.00;98097.31;5013862;28;103321;-65
2021/07/25 05:35:49;;;;;;;10.30;9.32;;;;;;;20.40;100.00;98086.06;5017652;28;103722;-65
2021/07/25 05:38:18;;;;;;;9.15;8.45;;;;;;;20.36;100.00;98100.03;5013442;28;102810;-65
2021/07/25 05:40:47;;;;;;;8.75;7.95;;;;;;;20.38;100.00;98093.44;5011525;28;103536;-64
2021/07/25 05:43:16;;;;;;;7.10;6.35;;;;;;;20.43;100.00;98090.22;5013538;28;103442;-65
2021/07/25 05:45:45;;;;;;;7.60;6.90;;;;;;;20.56;100.00;98095.75;5015800;27;102676;-65
2021/07/25 05:48:14;;;;;;;6.47;5.53;;;;;;;20.67;100.00;98095.25;5017313;28;102624;-65
2021/07/25 05:50:42;;;;;;;5.80;5.30;;;;;;;20.74;100.00;98098.84;5016482;28;106343;-65
2021/07/25 05:53:10;;;;;;;6.10;5.55;;;;;;;20.77;100.00;98095.81;5017663;28;103126;-65
2021/07/25 05:55:38;;;;;;;9.57;8.77;;;;;;;20.67;100.00;98092.56;5014593;28;102727;-65
2021/07/25 05:58:06;;;;;;;11.90;10.70;;;;;;;20.51;100.00;98099.00;5014556;27;102679;-65
2021/07/25 06:00:34;;;;;;;10.23;9.25;;;;;;;20.43;100.00;98107.16;5014961;28;103412;-66
2021/07/25 06:03:04;;;;;;;8.05;7.18;;;;;;;20.58;100.00;98104.44;5009830;28;103695;-66
2021/07/25 06:05:35;;;;;;;6.47;5.90;;;;;;;20.68;100.00;98104.97;5014691;28;102673;-66
2021/07/25 06:08:05;;;;;;;11.23;9.80;;;;;;;20.75;100.00;98105.88;5014337;28;102889;-66
2021/07/25 06:10:35;;;;;;;7.15;6.55;;;;;;;20.81;100.00;98102.44;5011474;28;104354;-66
2021/07/25 06:13:05;;;;;;;8.30;7.18;;;;;;;20.86;100.00;98113.44;5009278;28;103204;-66
2021/07/25 06:15:34;;;;;;;9.25;8.35;;;;;;;20.83;100.00;98107.63;5008987;28;102739;-66
2021/07/25 06:18:05;;;;;;;8.75;7.65;;;;;;;20.89;100.00;98106.84;5014771;28;102661;-65
2021/07/25 06:20:36;;;;;;;6.90;6.30;;;;;;;21.04;100.00;98111.16;5012279;27;103613;-66
2021/07/25 06:23:05;;;;;;;6.88;6.25;;;;;;;21.14;100.00;98106.31;5016557;28;103169;-66
2021/07/25 06:25:35;;;;;;;6.22;5.72;;;;;;;21.19;100.00;98116.50;5017729;28;102800;-66
2021/07/25 06:28:05;;;;;;;7.93;7.10;;;;;;;21.27;100.00;98106.47;5018245;28;102876;-65
2021/07/25 06:30:33;;;;;;;7.78;6.80;;;;;;;21.37;100.00;98111.50;5018733;28;103267;-66
2021/07/25 06:33:04;;;;;;;6.28;5.68;;;;;;;21.39;100.00;98109.44;5014147;28;103085;-66
2021/07/25 06:35:33;;;;;;;5.57;5.07;;;;;;;21.47;100.00;98116.56;5020518;28;102601;-67
2021/07/25 06:38:05;;;;;;;5.70;5.20;;;;;;;21.57;100.00;98111.69;5020829;28;102623;-66
2021/07/25 06:40:34;;;;;;;8.30;7.07;;;;;;;21.70;99.86;98109.09;5018423;28;103646;-66
2021/07/25 06:43:04;;;;;;;6.78;6.18;;;;;;;21.84;100.00;98116.22;5014499;28;103424;-67
2021/07/25 06:45:34;;;;;;;7.20;6.60;;;;;;;21.97;98.91;98110.16;5016794;28;102890;-66
2021/07/25 06:48:02;;;;;;;7.55;6.85;;;;;;;21.97;97.85;98105.63;5012887;28;103104;-66
2021/07/25 06:50:32;;;;;;;7.30;6.63;;;;;;;22.06;97.05;98106.28;5015874;28;103706;-66
2021/07/25 06:53:00;;;;;;;9.05;8.18;;;;;;;22.42;95.46;98096.97;5018525;28;104895;-66
2021/07/25 06:55:30;;;;;;;7.88;7.03;;;;;;;22.71;96.14;98095.06;5016206;27;102650;-66
2021/07/25 06:57:58;;;;;;;9.57;8.52;;;;;;;22.90;94.15;98091.59;5017336;28;103200;-66
2021/07/25 07:00:27;;;;;;;9.13;8.32;;;;;;;22.78;93.58;98090.50;5015823;28;103499;-67
2021/07/25 07:02:56;;;;;;;9.95;8.15;;;;;;;22.91;92.59;98094.06;5012501;28;103185;-66
2021/07/25 07:05:27;;;;;;;7.10;6.40;;;;;;;22.68;94.30;98084.69;5015906;28;102735;-66
2021/07/25 07:07:57;;;;;;;8.63;7.82;;;;;;;23.14;89.85;98079.41;5018978;27;103055;-66
2021/07/25 07:10:27;;;;;;;8.18;6.72;;;;;;;23.30;89.59;98089.81;5013650;28;103389;-66
2021/07/25 07:12:58;;;;;;;7.00;6.00;;;;;;;23.71;87.54;98093.16;4998327;28;105337;-66
2021/07/25 07:15:27;;;;;;;6.38;5.85;;;;;;;24.05;86.12;98089.38;5014970;28;102636;-66
2021/07/25 07:17:57;;;;;;;8.93;7.95;;;;;;;23.63;87.71;98091.50;5013169;28;103198;-67
2021/07/25 07:20:26;;;;;;;6.82;6.22;;;;;;;23.77;85.77;98081.56;5014779;28;103537;-66
2021/07/25 07:22:56;;;;;;;4.97;4.40;;;;;;;23.72;83.56;98077.81;5018174;28;103188;-66
2021/07/25 07:25:25;;;;;;;7.63;6.82;;;;;;;22.89;86.13;98065.69;5015349;27;102731;-66
2021/07/25 07:27:53;;;;;;;6.60;6.00;;;;;;;23.54;86.23;98071.19;5015758;28;102625;-66
2021/07/25 07:30:23;;;;;;;6.85;6.25;;;;;;;23.77;84.48;98070.75;5006835;28;104310;-66
2021/07/25 07:32:51;;;;;;;6.45;5.85;;;;;;;24.00;83.45;98071.13;5015485;28;104368;-66
2021/07/25 07:35:23;;;;;;;5.95;5.45;;;;;;;23.82;83.03;98067.44;5015310;28;102663;-66
2021/07/25 07:37:52;;;;;;;5.90;5.40;;;;;;;23.93;84.15;98074.88;5009902;28;103120;-66
2021/07/25 07:40:20;;;;;;;5.88;5.40;;;;;;;23.67;84.00;98079.25;5017474;28;104663;-66
2021/07/25 07:42:48;;;;;;;6.32;5.55;;;;;;;23.78;83.81;98082.34;5015851;28;104304;-66
2021/07/25 07:45:18;;;;;;;4.88;4.47;;;;;;;23.95;82.83;98084.41;5017911;28;103074;-66
2021/07/25 07:47:48;;;;;;;5.55;5.15;;;;;;;24.00;84.57;98081.91;5013820;28;102929;-66
2021/07/25 07:50:16;;;;;;;7.00;6.30;;;;;;;23.19;84.79;98077.75;5019386;28;103366;-66
2021/07/25 07:52:45;;;;;;;6.55;5.93;;;;;;;23.38;85.63;98076.97;5016049;28;103084;-66
2021/07/25 07:55:14;;;;;;;7.10;6.43;;;;;;;23.77;83.35;98069.94;5016112;28;102731;-66
2021/07/25 07:57:42;;;;;;;6.43;5.70;;;;;;;23.80;81.95;98056.03;5016961;27;103850;-66
2021/07/25 08:00:11;;;;;;;6.57;6.05;;;;;;;23.93;84.04;98064.09;5017639;27;103367;-67
2021/07/25 08:02:40;;;;;;;8.48;6.07;;;;;;;24.21;79.88;98067.38;5014063;28;103295;-66
2021/07/25 08:05:12;;;;;;;6.35;5.75;;;;;;;24.33;80.06;98060.28;5015784;28;103046;-66
2021/07/25 08:07:40;;;;;;;5.90;5.25;;;;;;;24.15;83.43;98062.81;5018105;28;103248;-66
2021/07/25 08:10:09;;;;;;;9.02;6.68;;;;;;;24.41;78.53;98056.50;5013002;28;103372;-66
2021/07/25 08:12:37;;;;;;;6.95;5.72;;;;;;;24.10;78.26;98060.75;5016129;28;103111;-66
2021/07/25 08:15:07;;;;;;;8.05;7.32;;;;;;;22.95;86.56;98056.81;5016116;28;102770;-66
2021/07/25 08:17:35;;;;;;;6.80;6.10;;;;;;;23.03;86.71;98067.38;5019708;28;102743;-66
2021/07/25 08:20:04;;;;;;;7.30;6.70;;;;;;;23.57;85.71;98065.38;5016908;28;103462;-66
2021/07/25 08:22:34;;;;;;;7.20;6.50;;;;;;;23.36;82.73;98073.63;5009176;27;103124;-66
2021/07/25 08:25:02;;;;;;;9.82;7.47;;;;;;;23.12;83.26;98071.53;5016946;27;102698;-66
2021/07/25 08:27:30;;;;;;;6.43;5.75;;;;;;;23.79;83.30;98078.63;5010741;27;102692;-66
2021/07/25 08:29:58;;;;;;;5.35;4.95;;;;;;;23.85;82.63;98077.78;5012354;27;103851;-66
2021/07/25 08:37:14;;;;;;;6.20;5.13;;;;;;;24.01;83.30;98083.56;4984327;22;103438;-61
2021/07/25 08:39:44;;;;;;;8.05;7.05;;;;;;;23.08;84.04;98083.75;5008077;22;103161;-66
2021/07/25 08:42:13;;;;;;;7.63;6.93;;;;;;;23.14;84.05;98079.41;5014503;27;103306;-66
2021/07/25 08:44:45;;;;;;;5.45;4.95;;;;;;;23.64;84.14;98084.22;5015548;28;103458;-66
2021/07/25 08:47:34;;;;;;;5.78;5.28;;;;;;;23.83;83.88;98088.78;5017911;28;102692;-66
2021/07/25 08:50:06;;;;;;;5.45;4.95;;;;;;;23.79;83.38;98089.41;5015815;28;102780;-65
2021/07/25 08:52:36;;;;;;;7.30;6.68;;;;;;;23.08;84.23;98094.53;5012325;27;103473;-61
2021/07/25 08:55:09;;;;;;;7.90;6.43;;;;;;;23.21;85.41;98094.56;5015975;28;109517;-62
2021/07/25 08:57:39;;;;;;;6.72;6.13;;;;;;;23.13;87.46;98097.44;5014425;28;102736;-62
2021/07/25 09:00:10;;;;;;;7.07;6.40;;;;;;;23.54;86.04;98091.91;5016468;28;103133;-60
2021/07/25 09:02:39;;;;;;;6.55;5.88;;;;;;;23.07;85.56;98096.38;5016406;27;104621;-61
2021/07/25 09:05:10;;;;;;;6.03;5.35;;;;;;;23.65;85.30;98097.53;4998789;28;103175;-61
2021/07/25 09:07:48;;;;;;;10.80;6.68;;;;;;;23.85;83.76;98105.59;5014508;28;102809;-63
2021/07/25 09:10:22;;;;;;;7.18;6.47;;;;;;;23.70;83.99;98101.44;5016205;28;102594;-61
2021/07/25 09:12:51;;;;;;;5.35;4.85;;;;;;;23.86;84.47;98106.44;5015214;28;104380;-61
2021/07/25 09:15:22;;;;;;;6.63;6.03;;;;;;;23.91;83.64;98103.94;5016764;28;103169;-61
2021/07/25 09:17:50;;;;;;;8.20;5.88;;;;;;;23.71;82.91;98103.94;5012472;28;103695;-61
2021/07/25 09:20:24;;;;;;;4.93;4.53;;;;;;;23.83;82.85;98090.66;5014511;28;103001;-61
2021/07/25 09:23:10;;;;;;;7.38;6.03;;;;;;;23.70;81.29;98086.09;4997719;28;104655;-61
2021/07/25 09:25:42;;;;;;;6.88;6.00;;;;;;;23.43;82.86;98085.28;5012815;28;103175;-61
2021/07/25 09:28:30;;;;;;;9.98;6.82;;;;;;;23.22;83.41;98082.72;5016298;28;103670;-61
2021/07/25 09:31:12;;;;;;;7.85;7.18;;;;;;;23.26;83.60;98085.84;4997318;28;102802;-61
2021/07/25 09:33:44;;;;;;;7.25;6.55;;;;;;;22.96;84.45;98093.47;5016150;27;103665;-61
2021/07/25 09:36:15;;;;;;;6.82;6.13;;;;;;;22.90;86.02;98089.75;4998192;28;103121;-61
2021/07/25 09:38:46;;;;;;;5.75;5.25;;;;;;;23.36;84.93;98087.09;5013593;28;103235;-61
2021/07/25 09:41:21;;;;;;;14.95;10.35;;;;;;;23.48;85.96;98088.19;5017507;28;102691;-61
2021/07/25 09:44:04;;;;;;;7.38;6.43;;;;;;;24.08;84.03;98091.66;5014687;28;103887;-61
2021/07/25 09:51:23;;;;;;;5.85;5.30;;;;;;;24.20;78.51;98108.88;4991628;22;103232;-66
2021/07/25 09:53:53;;;;;;;5.85;5.28;;;;;;;24.21;78.94;98115.94;4950150;28;104802;-61
2021/07/25 09:56:27;;;;;;;6.30;5.70;;;;;;;24.31;79.01;98116.31;4958834;28;104147;-61
2021/07/25 09:58:57;;;;;;;6.65;5.47;;;;;;;24.01;78.25;98121.34;4956006;28;103164;-61
2021/07/25 10:01:36;;;;;;;5.43;4.70;;;;;;;24.36;78.39;98124.66;4938677;28;102809;-61
2021/07/25 10:04:17;;;;;;;5.32;4.93;;;;;;;24.51;80.19;98110.88;4937207;28;102710;-61
2021/07/25 10:06:47;;;;;;;6.60;6.03;;;;;;;24.50;79.33;98118.16;4952329;28;105595;-61
2021/07/25 10:09:18;;;;;;;5.10;4.70;;;;;;;24.49;78.99;98119.19;4948967;28;103835;-61
2021/07/25 10:11:58;;;;;;;5.43;4.93;;;;;;;24.40;80.94;98114.22;4950136;28;102728;-61
2021/07/25 10:14:29;;;;;;;6.43;5.90;;;;;;;24.29;80.01;98114.88;4955425;28;102844;-60
2021/07/25 10:17:01;;;;;;;5.07;4.63;;;;;;;24.45;80.27;98117.94;4955283;28;103886;-60
2021/07/25 10:19:37;;;;;;;5.13;4.72;;;;;;;24.38;79.28;98121.72;4936012;28;103216;-64
2021/07/25 10:22:09;;;;;;;5.53;5.03;;;;;;;24.03;81.44;98124.66;4948762;28;102736;-64
2021/07/25 10:24:39;;;;;;;7.28;6.63;;;;;;;23.97;83.42;98124.69;4960929;28;103961;-64
2021/07/25 10:27:09;;;;;;;8.00;7.18;;;;;;;23.66;84.30;98128.81;4958993;28;103393;-62
2021/07/25 10:29:41;;;;;;;7.50;6.72;;;;;;;23.61;86.49;98127.78;4959969;28;103039;-62
2021/07/25 10:32:10;;;;;;;6.85;6.22;;;;;;;23.49;88.32;98130.28;4960852;28;102658;-62
2021/07/25 10:34:40;;;;;;;7.00;6.30;;;;;;;23.38;88.12;98130.88;4923479;28;102685;-63
2021/07/25 10:37:09;;;;;;;9.63;7.65;;;;;;;23.30;90.12;98125.66;4959384;28;103372;-63
2021/07/25 10:39:42;;;;;;;8.45;7.60;;;;;;;23.26;89.93;98126.28;4957882;28;104347;-63
2021/07/25 10:42:14;;;;;;;7.78;7.07;;;;;;;23.36;90.32;98110.53;4925991;28;102909;-62
2021/07/25 10:44:43;;;;;;;9.00;8.02;;;;;;;23.34;90.28;98118.00;4936975;28;102687;-63
2021/07/25 10:47:29;;;;;;;11.98;9.77;;;;;;;23.12;90.66;98114.66;4955496;28;103467;-63
2021/07/25 10:49:58;;;;;;;8.35;7.55;;;;;;;23.25;90.24;98120.06;4956558;28;103668;-63
2021/07/25 10:52:27;;;;;;;8.90;8.10;;;;;;;23.19;90.66;98125.41;4958281;28;102689;-64
2021/07/25 10:54:55;;;;;;;7.03;6.43;;;;;;;23.11;90.80;98134.53;4949203;28;102595;-64
2021/07/25 10:57:24;;;;;;;6.45;5.88;;;;;;;23.07;89.60;98127.91;4958162;28;103155;-64
2021/07/25 10:59:55;;;;;;;5.75;5.22;;;;;;;22.98;90.80;98129.94;4959541;28;103251;-64
2021/07/25 11:02:54;;;;;;;8.73;6.60;;;;;;;23.20;90.93;98133.31;4958362;28;102648;-63
2021/07/25 11:05:25;;;;;;;7.85;7.07;;;;;;;22.68;92.97;98120.50;4958453;28;102712;-63
2021/07/25 11:07:58;;;;;;;7.25;5.72;;;;;;;22.80;91.96;98118.06;4936645;28;103331;-64
2021/07/25 11:10:33;;;;;;;6.72;5.68;;;;;;;22.99;90.94;98119.97;4955016;28;103313;-64
2021/07/25 11:13:18;;;;;;;5.78;5.22;;;;;;;23.26;89.70;98120.88;4951349;28;102679;-64
2021/07/25 11:15:47;;;;;;;5.35;4.88;;;;;;;23.36;90.18;98116.75;4960985;28;102658;-65
2021/07/25 11:18:34;;;;;;;6.55;5.95;;;;;;;23.27;88.10;98117.97;4958165;28;103013;-65
2021/07/25 11:21:07;;;;;;;4.72;4.32;;;;;;;23.20;87.63;98132.47;4960113;28;103341;-65
2021/07/25 11:23:39;;;;;;;5.13;4.72;;;;;;;23.24;88.15;98123.81;4952820;28;102707;-65
2021/07/25 11:26:43;;;;;;;5.80;5.30;;;;;;;23.17;87.31;98128.31;4959375;28;102858;-65
2021/07/25 11:29:19;;;;;;;5.93;5.32;;;;;;;23.09;89.02;98128.53;4951123;28;104337;-65
2021/07/25 11:31:49;;;;;;;4.57;4.18;;;;;;;23.21;88.12;98140.38;4959903;28;103075;-65
2021/07/25 11:34:27;;;;;;;6.18;4.53;;;;;;;23.13;87.12;98143.22;4960149;28;102640;-65
2021/07/25 11:36:57;;;;;;;4.53;4.13;;;;;;;23.03;87.45;98142.78;4960169;28;102748;-65
2021/07/25 11:39:25;;;;;;;5.20;4.78;;;;;;;23.13;86.75;98150.50;4960689;28;104286;-65
2021/07/25 11:41:53;;;;;;;6.35;4.97;;;;;;;23.19;87.80;98150.50;4956016;28;103165;-66
2021/07/25 11:44:27;;;;;;;4.63;4.32;;;;;;;23.53;86.35;98142.31;4958261;28;102615;-66